sensor_id;sensor_type;location;lat;lon;timestamp;P1;durP1;ratioP1;P2;durP2;ratioP2
8086;SDS011;4086;54.412;9.980;2022-08-27T00:00:17;23.87;;;15.23;;
8086;SDS011;4086;54.412;9.980;2022-08-27T00:02:44;23.33;;;14.00;;
8086;SDS011;4086;54.412;9.980;2022-08-27T00:05:13;20.47;;;13.33;;
8086;SDS011;4086;54.412;9.980;2022-08-27T00:07:41;23.33;;;15.30;;
8086;SDS011;4086;54.412;9.980;2022-08-27T00:10:08;24.77;;;14.87;;
8086;SDS011;4086;54.412;9.980;2022-08-27T00:12:37;27.77;;;15.23;;
8086;SDS011;4086;54.412;9.980;2022-08-27T00:15:07;24.73;;;15.60;;
8086;SDS011;4086;54.412;9.980;2022-08-27T00:17:35;24.63;;;15.53;;
8086;SDS011;4086;54.412;9.980;2022-08-27T00:20:02;24.90;;;14.97;;
8086;SDS011;4086;54.412;9.980;2022-08-27T00:22:30;26.03;;;16.03;;
8086;SDS011;4086;54.412;9.980;2022-08-27T00:24:56;26.73;;;15.17;;
8086;SDS011;4086;54.412;9.980;2022-08-27T00:27:23;19.60;;;13.80;;
8086;SDS011;4086;54.412;9.980;2022-08-27T00:29:49;17.90;;;13.60;;
8086;SDS011;4086;54.412;9.980;2022-08-27T00:32:17;27.43;;;16.53;;
8086;SDS011;4086;54.412;9.980;2022-08-27T00:34:43;21.10;;;15.53;;
8086;SDS011;4086;54.412;9.980;2022-08-27T00:37:10;20.60;;;14.37;;
8086;SDS011;4086;54.412;9.980;2022-08-27T00:39:37;24.70;;;15.67;;
8086;SDS011;4086;54.412;9.980;2022-08-27T00:42:03;22.00;;;14.33;;
8086;SDS011;4086;54.412;9.980;2022-08-27T00:44:31;26.70;;;16.20;;
8086;SDS011;4086;54.412;9.980;2022-08-27T00:46:58;25.90;;;14.77;;
8086;SDS011;4086;54.412;9.980;2022-08-27T00:49:28;24.77;;;15.17;;
8086;SDS011;4086;54.412;9.980;2022-08-27T00:51:59;26.77;;;15.40;;
8086;SDS011;4086;54.412;9.980;2022-08-27T00:54:29;24.57;;;15.07;;
8086;SDS011;4086;54.412;9.980;2022-08-27T00:56:56;24.27;;;14.20;;
8086;SDS011;4086;54.412;9.980;2022-08-27T00:59:24;24.27;;;15.53;;
8086;SDS011;4086;54.412;9.980;2022-08-27T01:01:53;25.07;;;15.33;;
8086;SDS011;4086;54.412;9.980;2022-08-27T01:04:39;26.10;;;15.63;;
8086;SDS011;4086;54.412;9.980;2022-08-27T01:07:06;25.27;;;15.80;;
8086;SDS011;4086;54.412;9.980;2022-08-27T01:09:33;26.37;;;16.07;;
8086;SDS011;4086;54.412;9.980;2022-08-27T01:11:59;29.70;;;16.03;;
8086;SDS011;4086;54.412;9.980;2022-08-27T01:14:26;25.27;;;15.37;;
8086;SDS011;4086;54.412;9.980;2022-08-27T01:16:53;28.53;;;15.43;;
8086;SDS011;4086;54.412;9.980;2022-08-27T01:19:23;25.97;;;16.07;;
8086;SDS011;4086;54.412;9.980;2022-08-27T01:21:56;28.23;;;15.90;;
8086;SDS011;4086;54.412;9.980;2022-08-27T01:24:41;25.30;;;16.30;;
8086;SDS011;4086;54.412;9.980;2022-08-27T01:27:10;24.20;;;14.83;;
8086;SDS011;4086;54.412;9.980;2022-08-27T01:29:38;22.90;;;14.50;;
8086;SDS011;4086;54.412;9.980;2022-08-27T01:32:06;26.77;;;15.00;;
8086;SDS011;4086;54.412;9.980;2022-08-27T01:34:34;29.33;;;16.00;;
8086;SDS011;4086;54.412;9.980;2022-08-27T01:37:01;26.60;;;16.13;;
8086;SDS011;4086;54.412;9.980;2022-08-27T01:39:29;24.60;;;14.23;;
8086;SDS011;4086;54.412;9.980;2022-08-27T01:42:02;23.83;;;15.67;;
8086;SDS011;4086;54.412;9.980;2022-08-27T01:44:29;23.77;;;15.00;;
8086;SDS011;4086;54.412;9.980;2022-08-27T01:47:06;24.50;;;13.77;;
8086;SDS011;4086;54.412;9.980;2022-08-27T01:49:33;25.40;;;15.40;;
8086;SDS011;4086;54.412;9.980;2022-08-27T01:51:59;27.33;;;15.07;;
8086;SDS011;4086;54.412;9.980;2022-08-27T01:54:26;23.83;;;13.70;;
8086;SDS011;4086;54.412;9.980;2022-08-27T01:56:53;22.23;;;14.10;;
8086;SDS011;4086;54.412;9.980;2022-08-27T01:59:21;26.50;;;14.47;;
8086;SDS011;4086;54.412;9.980;2022-08-27T02:01:47;27.63;;;14.47;;
8086;SDS011;4086;54.412;9.980;2022-08-27T02:04:14;23.17;;;14.87;;
8086;SDS011;4086;54.412;9.980;2022-08-27T02:06:40;19.30;;;12.27;;
8086;SDS011;4086;54.412;9.980;2022-08-27T02:09:07;22.27;;;13.73;;
8086;SDS011;4086;54.412;9.980;2022-08-27T02:11:33;18.67;;;12.40;;
8086;SDS011;4086;54.412;9.980;2022-08-27T02:14:00;23.67;;;13.67;;
8086;SDS011;4086;54.412;9.980;2022-08-27T02:16:28;22.40;;;13.77;;
8086;SDS011;4086;54.412;9.980;2022-08-27T02:18:55;28.10;;;13.57;;
8086;SDS011;4086;54.412;9.980;2022-08-27T02:21:22;24.33;;;13.30;;
8086;SDS011;4086;54.412;9.980;2022-08-27T02:23:48;23.00;;;12.60;;
8086;SDS011;4086;54.412;9.980;2022-08-27T02:26:15;20.20;;;13.50;;
8086;SDS011;4086;54.412;9.980;2022-08-27T02:28:41;18.90;;;12.30;;
8086;SDS011;4086;54.412;9.980;2022-08-27T02:31:08;27.07;;;14.40;;
8086;SDS011;4086;54.412;9.980;2022-08-27T02:33:36;19.73;;;13.57;;
8086;SDS011;4086;54.412;9.980;2022-08-27T02:36:02;21.70;;;12.13;;
8086;SDS011;4086;54.412;9.980;2022-08-27T02:38:29;24.60;;;13.13;;
8086;SDS011;4086;54.412;9.980;2022-08-27T02:40:56;23.00;;;13.07;;
8086;SDS011;4086;54.412;9.980;2022-08-27T02:43:22;20.73;;;11.40;;
8086;SDS011;4086;54.412;9.980;2022-08-27T02:45:49;20.73;;;13.17;;
8086;SDS011;4086;54.412;9.980;2022-08-27T02:48:16;21.53;;;12.40;;
8086;SDS011;4086;54.412;9.980;2022-08-27T02:50:43;20.00;;;11.83;;
8086;SDS011;4086;54.412;9.980;2022-08-27T02:53:11;22.07;;;11.63;;
8086;SDS011;4086;54.412;9.980;2022-08-27T02:55:37;20.90;;;11.60;;
8086;SDS011;4086;54.412;9.980;2022-08-27T02:58:03;17.63;;;9.97;;
8086;SDS011;4086;54.412;9.980;2022-08-27T03:00:30;19.50;;;10.70;;
8086;SDS011;4086;54.412;9.980;2022-08-27T03:02:56;23.57;;;11.70;;
8086;SDS011;4086;54.412;9.980;2022-08-27T03:05:23;20.53;;;11.70;;
8086;SDS011;4086;54.412;9.980;2022-08-27T03:07:51;20.33;;;12.13;;
8086;SDS011;4086;54.412;9.980;2022-08-27T03:10:19;18.40;;;11.50;;
8086;SDS011;4086;54.412;9.980;2022-08-27T03:12:47;17.57;;;10.40;;
8086;SDS011;4086;54.412;9.980;2022-08-27T03:15:15;18.20;;;10.33;;
8086;SDS011;4086;54.412;9.980;2022-08-27T03:17:42;18.63;;;10.43;;
8086;SDS011;4086;54.412;9.980;2022-08-27T03:20:32;17.90;;;10.23;;
8086;SDS011;4086;54.412;9.980;2022-08-27T03:23:00;15.73;;;10.67;;
8086;SDS011;4086;54.412;9.980;2022-08-27T03:25:26;13.13;;;9.63;;
8086;SDS011;4086;54.412;9.980;2022-08-27T03:27:53;20.77;;;11.37;;
8086;SDS011;4086;54.412;9.980;2022-08-27T03:30:20;14.90;;;9.50;;
8086;SDS011;4086;54.412;9.980;2022-08-27T03:32:48;15.63;;;9.77;;
8086;SDS011;4086;54.412;9.980;2022-08-27T03:35:14;16.47;;;10.33;;
8086;SDS011;4086;54.412;9.980;2022-08-27T03:37:41;13.60;;;10.43;;
8086;SDS011;4086;54.412;9.980;2022-08-27T03:40:09;18.77;;;10.30;;
8086;SDS011;4086;54.412;9.980;2022-08-27T03:42:36;18.27;;;10.17;;
8086;SDS011;4086;54.412;9.980;2022-08-27T03:45:03;16.97;;;9.97;;
8086;SDS011;4086;54.412;9.980;2022-08-27T03:47:31;15.30;;;9.73;;
8086;SDS011;4086;54.412;9.980;2022-08-27T03:49:57;14.87;;;10.27;;
8086;SDS011;4086;54.412;9.980;2022-08-27T03:52:25;15.23;;;9.70;;
8086;SDS011;4086;54.412;9.980;2022-08-27T03:54:51;14.57;;;10.43;;
8086;SDS011;4086;54.412;9.980;2022-08-27T03:57:19;14.33;;;10.47;;
8086;SDS011;4086;54.412;9.980;2022-08-27T03:59:46;15.77;;;10.30;;
8086;SDS011;4086;54.412;9.980;2022-08-27T04:02:12;13.87;;;8.73;;
8086;SDS011;4086;54.412;9.980;2022-08-27T04:04:40;14.83;;;9.43;;
8086;SDS011;4086;54.412;9.980;2022-08-27T04:07:06;12.53;;;9.87;;
8086;SDS011;4086;54.412;9.980;2022-08-27T04:09:34;14.67;;;9.63;;
8086;SDS011;4086;54.412;9.980;2022-08-27T04:12:01;16.07;;;9.53;;
8086;SDS011;4086;54.412;9.980;2022-08-27T04:14:29;14.37;;;9.40;;
8086;SDS011;4086;54.412;9.980;2022-08-27T04:16:55;14.57;;;8.07;;
8086;SDS011;4086;54.412;9.980;2022-08-27T04:19:22;17.60;;;7.97;;
8086;SDS011;4086;54.412;9.980;2022-08-27T04:21:49;13.00;;;8.40;;
8086;SDS011;4086;54.412;9.980;2022-08-27T04:24:16;11.03;;;7.43;;
8086;SDS011;4086;54.412;9.980;2022-08-27T04:26:42;10.73;;;7.10;;
8086;SDS011;4086;54.412;9.980;2022-08-27T04:29:11;11.13;;;7.37;;
8086;SDS011;4086;54.412;9.980;2022-08-27T04:31:39;11.67;;;6.50;;
8086;SDS011;4086;54.412;9.980;2022-08-27T04:34:05;9.53;;;6.50;;
8086;SDS011;4086;54.412;9.980;2022-08-27T04:36:32;11.40;;;7.57;;
8086;SDS011;4086;54.412;9.980;2022-08-27T04:38:58;9.80;;;6.77;;
8086;SDS011;4086;54.412;9.980;2022-08-27T04:41:25;10.93;;;6.50;;
8086;SDS011;4086;54.412;9.980;2022-08-27T04:43:52;10.67;;;5.77;;
8086;SDS011;4086;54.412;9.980;2022-08-27T04:46:21;11.03;;;7.90;;
8086;SDS011;4086;54.412;9.980;2022-08-27T04:48:50;7.80;;;6.10;;
8086;SDS011;4086;54.412;9.980;2022-08-27T04:51:17;12.33;;;6.90;;
8086;SDS011;4086;54.412;9.980;2022-08-27T04:53:44;13.53;;;7.07;;
8086;SDS011;4086;54.412;9.980;2022-08-27T04:56:12;9.63;;;6.40;;
8086;SDS011;4086;54.412;9.980;2022-08-27T04:58:39;9.23;;;5.80;;
8086;SDS011;4086;54.412;9.980;2022-08-27T05:01:06;7.57;;;5.57;;
8086;SDS011;4086;54.412;9.980;2022-08-27T05:03:33;8.33;;;5.97;;
8086;SDS011;4086;54.412;9.980;2022-08-27T05:06:02;8.53;;;6.23;;
8086;SDS011;4086;54.412;9.980;2022-08-27T05:08:29;7.43;;;5.30;;
8086;SDS011;4086;54.412;9.980;2022-08-27T05:10:57;8.87;;;5.53;;
8086;SDS011;4086;54.412;9.980;2022-08-27T05:13:24;13.00;;;6.80;;
8086;SDS011;4086;54.412;9.980;2022-08-27T05:15:56;9.00;;;5.87;;
8086;SDS011;4086;54.412;9.980;2022-08-27T05:18:23;11.27;;;6.10;;
8086;SDS011;4086;54.412;9.980;2022-08-27T05:20:50;8.07;;;5.67;;
8086;SDS011;4086;54.412;9.980;2022-08-27T05:23:18;10.87;;;6.10;;
8086;SDS011;4086;54.412;9.980;2022-08-27T05:25:46;13.00;;;6.67;;
8086;SDS011;4086;54.412;9.980;2022-08-27T05:28:13;12.77;;;6.20;;
8086;SDS011;4086;54.412;9.980;2022-08-27T05:30:42;11.03;;;6.30;;
8086;SDS011;4086;54.412;9.980;2022-08-27T05:33:10;13.63;;;6.17;;
8086;SDS011;4086;54.412;9.980;2022-08-27T05:35:39;13.67;;;6.73;;
8086;SDS011;4086;54.412;9.980;2022-08-27T05:38:06;8.63;;;5.30;;
8086;SDS011;4086;54.412;9.980;2022-08-27T05:40:34;12.03;;;6.40;;
8086;SDS011;4086;54.412;9.980;2022-08-27T05:43:00;9.27;;;6.20;;
8086;SDS011;4086;54.412;9.980;2022-08-27T05:45:27;10.07;;;5.23;;
8086;SDS011;4086;54.412;9.980;2022-08-27T05:47:53;8.83;;;5.60;;
8086;SDS011;4086;54.412;9.980;2022-08-27T05:50:19;11.27;;;5.57;;
8086;SDS011;4086;54.412;9.980;2022-08-27T05:52:46;8.53;;;5.20;;
8086;SDS011;4086;54.412;9.980;2022-08-27T05:55:12;10.87;;;5.30;;
8086;SDS011;4086;54.412;9.980;2022-08-27T05:57:41;8.57;;;5.40;;
8086;SDS011;4086;54.412;9.980;2022-08-27T06:00:08;8.30;;;5.53;;
8086;SDS011;4086;54.412;9.980;2022-08-27T06:02:53;7.63;;;4.50;;
8086;SDS011;4086;54.412;9.980;2022-08-27T06:05:19;7.43;;;4.40;;
8086;SDS011;4086;54.412;9.980;2022-08-27T06:07:46;7.57;;;4.93;;
8086;SDS011;4086;54.412;9.980;2022-08-27T06:10:13;5.57;;;4.33;;
8086;SDS011;4086;54.412;9.980;2022-08-27T06:12:39;4.70;;;3.90;;
8086;SDS011;4086;54.412;9.980;2022-08-27T06:15:07;6.40;;;4.33;;
8086;SDS011;4086;54.412;9.980;2022-08-27T06:17:34;7.27;;;3.77;;
8086;SDS011;4086;54.412;9.980;2022-08-27T06:20:01;7.97;;;4.40;;
8086;SDS011;4086;54.412;9.980;2022-08-27T06:22:28;4.97;;;3.67;;
8086;SDS011;4086;54.412;9.980;2022-08-27T06:24:54;5.57;;;3.60;;
8086;SDS011;4086;54.412;9.980;2022-08-27T06:27:21;5.93;;;3.80;;
8086;SDS011;4086;54.412;9.980;2022-08-27T06:29:47;8.50;;;4.07;;
8086;SDS011;4086;54.412;9.980;2022-08-27T06:32:15;8.83;;;4.63;;
8086;SDS011;4086;54.412;9.980;2022-08-27T06:34:41;5.63;;;4.13;;
8086;SDS011;4086;54.412;9.980;2022-08-27T06:37:08;7.90;;;3.83;;
8086;SDS011;4086;54.412;9.980;2022-08-27T06:39:35;9.23;;;4.20;;
8086;SDS011;4086;54.412;9.980;2022-08-27T06:42:03;9.20;;;3.83;;
8086;SDS011;4086;54.412;9.980;2022-08-27T06:44:30;7.77;;;3.80;;
8086;SDS011;4086;54.412;9.980;2022-08-27T06:46:56;8.30;;;3.93;;
8086;SDS011;4086;54.412;9.980;2022-08-27T06:49:25;8.70;;;3.63;;
8086;SDS011;4086;54.412;9.980;2022-08-27T06:51:51;5.20;;;3.37;;
8086;SDS011;4086;54.412;9.980;2022-08-27T06:54:18;6.20;;;3.60;;
8086;SDS011;4086;54.412;9.980;2022-08-27T06:56:45;6.90;;;3.90;;
8086;SDS011;4086;54.412;9.980;2022-08-27T06:59:14;7.17;;;3.43;;
8086;SDS011;4086;54.412;9.980;2022-08-27T07:01:42;6.73;;;3.30;;
8086;SDS011;4086;54.412;9.980;2022-08-27T07:04:11;5.57;;;3.10;;
8086;SDS011;4086;54.412;9.980;2022-08-27T07:06:43;6.33;;;3.07;;
8086;SDS011;4086;54.412;9.980;2022-08-27T07:09:09;9.93;;;3.77;;
8086;SDS011;4086;54.412;9.980;2022-08-27T07:11:36;8.13;;;3.77;;
8086;SDS011;4086;54.412;9.980;2022-08-27T07:14:03;6.87;;;3.63;;
8086;SDS011;4086;54.412;9.980;2022-08-27T07:16:31;8.47;;;3.40;;
8086;SDS011;4086;54.412;9.980;2022-08-27T07:18:58;9.17;;;3.40;;
8086;SDS011;4086;54.412;9.980;2022-08-27T07:21:26;5.27;;;3.00;;
8086;SDS011;4086;54.412;9.980;2022-08-27T07:23:54;6.43;;;3.00;;
8086;SDS011;4086;54.412;9.980;2022-08-27T07:26:23;9.00;;;3.07;;
8086;SDS011;4086;54.412;9.980;2022-08-27T07:28:49;6.23;;;3.23;;
8086;SDS011;4086;54.412;9.980;2022-08-27T07:31:18;5.23;;;3.23;;
8086;SDS011;4086;54.412;9.980;2022-08-27T07:33:46;6.30;;;3.30;;
8086;SDS011;4086;54.412;9.980;2022-08-27T07:36:13;4.70;;;2.73;;
8086;SDS011;4086;54.412;9.980;2022-08-27T07:38:39;7.07;;;3.10;;
8086;SDS011;4086;54.412;9.980;2022-08-27T07:41:08;4.13;;;2.83;;
8086;SDS011;4086;54.412;9.980;2022-08-27T07:43:37;5.00;;;3.03;;
8086;SDS011;4086;54.412;9.980;2022-08-27T07:46:21;8.27;;;3.47;;
8086;SDS011;4086;54.412;9.980;2022-08-27T07:48:48;5.87;;;2.67;;
8086;SDS011;4086;54.412;9.980;2022-08-27T07:51:16;7.03;;;3.20;;
8086;SDS011;4086;54.412;9.980;2022-08-27T07:53:44;6.27;;;3.07;;
8086;SDS011;4086;54.412;9.980;2022-08-27T07:56:12;5.73;;;3.00;;
8086;SDS011;4086;54.412;9.980;2022-08-27T07:58:39;3.97;;;2.37;;
8086;SDS011;4086;54.412;9.980;2022-08-27T08:01:07;8.97;;;3.10;;
8086;SDS011;4086;54.412;9.980;2022-08-27T08:03:34;6.40;;;2.60;;
8086;SDS011;4086;54.412;9.980;2022-08-27T08:06:01;6.57;;;2.87;;
8086;SDS011;4086;54.412;9.980;2022-08-27T08:08:30;5.47;;;2.67;;
8086;SDS011;4086;54.412;9.980;2022-08-27T08:10:56;8.83;;;3.27;;
8086;SDS011;4086;54.412;9.980;2022-08-27T08:13:24;7.70;;;3.17;;
8086;SDS011;4086;54.412;9.980;2022-08-27T08:15:51;6.47;;;3.27;;
8086;SDS011;4086;54.412;9.980;2022-08-27T08:18:17;7.20;;;2.60;;
8086;SDS011;4086;54.412;9.980;2022-08-27T08:20:43;7.83;;;3.23;;
8086;SDS011;4086;54.412;9.980;2022-08-27T08:23:11;7.90;;;3.17;;
8086;SDS011;4086;54.412;9.980;2022-08-27T08:25:38;6.30;;;3.20;;
8086;SDS011;4086;54.412;9.980;2022-08-27T08:28:04;7.90;;;2.87;;
8086;SDS011;4086;54.412;9.980;2022-08-27T08:30:32;7.83;;;2.90;;
8086;SDS011;4086;54.412;9.980;2022-08-27T08:32:59;5.83;;;2.67;;
8086;SDS011;4086;54.412;9.980;2022-08-27T08:35:25;5.77;;;2.53;;
8086;SDS011;4086;54.412;9.980;2022-08-27T08:37:52;6.27;;;2.57;;
8086;SDS011;4086;54.412;9.980;2022-08-27T08:40:20;7.47;;;2.93;;
8086;SDS011;4086;54.412;9.980;2022-08-27T08:42:52;6.70;;;2.97;;
8086;SDS011;4086;54.412;9.980;2022-08-27T08:45:21;8.83;;;3.07;;
8086;SDS011;4086;54.412;9.980;2022-08-27T08:47:53;7.37;;;2.80;;
8086;SDS011;4086;54.412;9.980;2022-08-27T08:50:23;7.97;;;3.07;;
8086;SDS011;4086;54.412;9.980;2022-08-27T08:52:53;7.40;;;3.13;;
8086;SDS011;4086;54.412;9.980;2022-08-27T08:55:28;9.17;;;3.47;;
8086;SDS011;4086;54.412;9.980;2022-08-27T08:58:03;5.23;;;2.97;;
8086;SDS011;4086;54.412;9.980;2022-08-27T09:00:35;10.50;;;3.10;;
8086;SDS011;4086;54.412;9.980;2022-08-27T09:03:04;9.07;;;3.17;;
8086;SDS011;4086;54.412;9.980;2022-08-27T09:05:30;8.37;;;3.23;;
8086;SDS011;4086;54.412;9.980;2022-08-27T09:08:00;5.93;;;2.80;;
8086;SDS011;4086;54.412;9.980;2022-08-27T09:10:31;4.90;;;3.00;;
8086;SDS011;4086;54.412;9.980;2022-08-27T09:13:04;4.13;;;2.70;;
8086;SDS011;4086;54.412;9.980;2022-08-27T09:15:33;7.53;;;3.23;;
8086;SDS011;4086;54.412;9.980;2022-08-27T09:18:06;8.53;;;3.10;;
8086;SDS011;4086;54.412;9.980;2022-08-27T09:20:34;6.97;;;3.20;;
8086;SDS011;4086;54.412;9.980;2022-08-27T09:23:02;9.23;;;3.13;;
8086;SDS011;4086;54.412;9.980;2022-08-27T09:25:33;7.50;;;3.17;;
8086;SDS011;4086;54.412;9.980;2022-08-27T09:28:04;8.43;;;3.30;;
8086;SDS011;4086;54.412;9.980;2022-08-27T09:30:52;5.47;;;3.07;;
8086;SDS011;4086;54.412;9.980;2022-08-27T09:33:21;3.27;;;2.30;;
8086;SDS011;4086;54.412;9.980;2022-08-27T09:35:48;5.00;;;2.90;;
8086;SDS011;4086;54.412;9.980;2022-08-27T09:38:25;5.43;;;2.47;;
8086;SDS011;4086;54.412;9.980;2022-08-27T09:40:54;4.47;;;2.63;;
8086;SDS011;4086;54.412;9.980;2022-08-27T09:43:23;6.83;;;3.10;;
8086;SDS011;4086;54.412;9.980;2022-08-27T09:45:53;7.13;;;3.00;;
8086;SDS011;4086;54.412;9.980;2022-08-27T09:48:23;6.10;;;2.73;;
8086;SDS011;4086;54.412;9.980;2022-08-27T09:50:52;7.00;;;3.07;;
8086;SDS011;4086;54.412;9.980;2022-08-27T09:53:22;6.33;;;3.07;;
8086;SDS011;4086;54.412;9.980;2022-08-27T09:55:52;6.20;;;3.20;;
8086;SDS011;4086;54.412;9.980;2022-08-27T09:58:19;5.43;;;3.57;;
8086;SDS011;4086;54.412;9.980;2022-08-27T10:00:48;4.53;;;2.80;;
8086;SDS011;4086;54.412;9.980;2022-08-27T10:03:26;5.73;;;2.90;;
8086;SDS011;4086;54.412;9.980;2022-08-27T10:05:52;3.93;;;2.63;;
8086;SDS011;4086;54.412;9.980;2022-08-27T10:08:21;3.87;;;2.77;;
8086;SDS011;4086;54.412;9.980;2022-08-27T10:10:51;3.87;;;2.87;;
8086;SDS011;4086;54.412;9.980;2022-08-27T10:13:21;3.87;;;2.77;;
8086;SDS011;4086;54.412;9.980;2022-08-27T10:15:54;4.10;;;2.73;;
8086;SDS011;4086;54.412;9.980;2022-08-27T10:18:32;6.20;;;3.07;;
8086;SDS011;4086;54.412;9.980;2022-08-27T10:21:06;3.40;;;2.30;;
8086;SDS011;4086;54.412;9.980;2022-08-27T10:23:38;4.30;;;2.37;;
8086;SDS011;4086;54.412;9.980;2022-08-27T10:26:08;5.37;;;2.33;;
8086;SDS011;4086;54.412;9.980;2022-08-27T10:28:39;4.87;;;2.63;;
8086;SDS011;4086;54.412;9.980;2022-08-27T10:31:21;4.23;;;2.10;;
8086;SDS011;4086;54.412;9.980;2022-08-27T10:33:59;5.03;;;2.50;;
8086;SDS011;4086;54.412;9.980;2022-08-27T10:36:34;9.03;;;2.70;;
8086;SDS011;4086;54.412;9.980;2022-08-27T10:39:07;4.13;;;2.00;;
8086;SDS011;4086;54.412;9.980;2022-08-27T10:41:37;3.83;;;2.33;;
8086;SDS011;4086;54.412;9.980;2022-08-27T10:44:16;8.33;;;2.50;;
8086;SDS011;4086;54.412;9.980;2022-08-27T10:46:55;5.63;;;2.33;;
8086;SDS011;4086;54.412;9.980;2022-08-27T10:49:31;3.13;;;1.90;;
8086;SDS011;4086;54.412;9.980;2022-08-27T10:52:06;6.77;;;2.43;;
8086;SDS011;4086;54.412;9.980;2022-08-27T10:54:42;4.53;;;2.07;;
8086;SDS011;4086;54.412;9.980;2022-08-27T10:57:14;4.27;;;1.90;;
8086;SDS011;4086;54.412;9.980;2022-08-27T10:59:43;4.87;;;1.90;;
8086;SDS011;4086;54.412;9.980;2022-08-27T11:02:14;5.47;;;2.20;;
8086;SDS011;4086;54.412;9.980;2022-08-27T11:04:49;4.80;;;1.90;;
8086;SDS011;4086;54.412;9.980;2022-08-27T11:07:19;6.77;;;2.00;;
8086;SDS011;4086;54.412;9.980;2022-08-27T11:09:48;4.63;;;1.87;;
8086;SDS011;4086;54.412;9.980;2022-08-27T11:12:17;3.20;;;1.80;;
8086;SDS011;4086;54.412;9.980;2022-08-27T11:14:46;4.43;;;1.97;;
8086;SDS011;4086;54.412;9.980;2022-08-27T11:17:17;5.63;;;1.77;;
8086;SDS011;4086;54.412;9.980;2022-08-27T11:19:51;3.30;;;1.58;;
8086;SDS011;4086;54.412;9.980;2022-08-27T11:22:21;4.63;;;1.70;;
8086;SDS011;4086;54.412;9.980;2022-08-27T11:24:51;6.30;;;1.80;;
8086;SDS011;4086;54.412;9.980;2022-08-27T11:27:21;4.85;;;2.05;;
8086;SDS011;4086;54.412;9.980;2022-08-27T11:29:52;5.60;;;1.83;;
8086;SDS011;4086;54.412;9.980;2022-08-27T11:32:24;3.60;;;1.83;;
8086;SDS011;4086;54.412;9.980;2022-08-27T11:34:54;4.22;;;1.80;;
8086;SDS011;4086;54.412;9.980;2022-08-27T11:37:27;3.92;;;1.52;;
8086;SDS011;4086;54.412;9.980;2022-08-27T11:40:09;3.45;;;1.67;;
8086;SDS011;4086;54.412;9.980;2022-08-27T11:42:48;5.25;;;1.75;;
8086;SDS011;4086;54.412;9.980;2022-08-27T11:45:16;4.13;;;1.70;;
8086;SDS011;4086;54.412;9.980;2022-08-27T11:47:51;4.80;;;1.85;;
8086;SDS011;4086;54.412;9.980;2022-08-27T11:50:21;3.75;;;1.90;;
8086;SDS011;4086;54.412;9.980;2022-08-27T11:52:53;3.75;;;1.80;;
8086;SDS011;4086;54.412;9.980;2022-08-27T11:55:24;5.05;;;1.90;;
8086;SDS011;4086;54.412;9.980;2022-08-27T11:58:02;3.30;;;1.58;;
8086;SDS011;4086;54.412;9.980;2022-08-27T12:00:32;4.45;;;1.52;;
8086;SDS011;4086;54.412;9.980;2022-08-27T12:03:00;3.55;;;1.60;;
8086;SDS011;4086;54.412;9.980;2022-08-27T12:05:43;4.35;;;2.00;;
8086;SDS011;4086;54.412;9.980;2022-08-27T12:08:26;3.70;;;1.70;;
8086;SDS011;4086;54.412;9.980;2022-08-27T12:10:57;4.30;;;1.80;;
8086;SDS011;4086;54.412;9.980;2022-08-27T12:13:31;3.03;;;1.90;;
8086;SDS011;4086;54.412;9.980;2022-08-27T12:16:01;4.28;;;2.00;;
8086;SDS011;4086;54.412;9.980;2022-08-27T12:18:41;4.40;;;2.00;;
8086;SDS011;4086;54.412;9.980;2022-08-27T12:21:18;2.72;;;1.50;;
8086;SDS011;4086;54.412;9.980;2022-08-27T12:23:53;6.50;;;1.95;;
8086;SDS011;4086;54.412;9.980;2022-08-27T12:26:35;4.78;;;2.00;;
8086;SDS011;4086;54.412;9.980;2022-08-27T12:29:23;4.97;;;1.73;;
8086;SDS011;4086;54.412;9.980;2022-08-27T12:31:53;3.83;;;1.65;;
8086;SDS011;4086;54.412;9.980;2022-08-27T12:34:27;6.28;;;1.92;;
8086;SDS011;4086;54.412;9.980;2022-08-27T12:36:55;3.03;;;1.77;;
8086;SDS011;4086;54.412;9.980;2022-08-27T12:39:22;4.60;;;1.80;;
8086;SDS011;4086;54.412;9.980;2022-08-27T12:41:53;3.90;;;1.70;;
8086;SDS011;4086;54.412;9.980;2022-08-27T12:44:23;3.72;;;1.70;;
8086;SDS011;4086;54.412;9.980;2022-08-27T12:46:52;3.05;;;1.50;;
8086;SDS011;4086;54.412;9.980;2022-08-27T12:49:20;7.97;;;2.20;;
8086;SDS011;4086;54.412;9.980;2022-08-27T12:51:49;3.42;;;2.00;;
8086;SDS011;4086;54.412;9.980;2022-08-27T12:54:21;4.90;;;2.08;;
8086;SDS011;4086;54.412;9.980;2022-08-27T12:56:56;3.92;;;1.95;;
8086;SDS011;4086;54.412;9.980;2022-08-27T13:02:34;3.40;;;1.95;;
8086;SDS011;4086;54.412;9.980;2022-08-27T13:05:10;4.20;;;1.90;;
8086;SDS011;4086;54.412;9.980;2022-08-27T13:07:39;4.10;;;1.80;;
8086;SDS011;4086;54.412;9.980;2022-08-27T13:10:09;4.25;;;1.80;;
8086;SDS011;4086;54.412;9.980;2022-08-27T13:12:38;4.30;;;1.73;;
8086;SDS011;4086;54.412;9.980;2022-08-27T13:15:05;2.25;;;1.52;;
8086;SDS011;4086;54.412;9.980;2022-08-27T13:17:35;4.22;;;1.92;;
8086;SDS011;4086;54.412;9.980;2022-08-27T13:20:03;4.05;;;2.03;;
8086;SDS011;4086;54.412;9.980;2022-08-27T13:22:39;3.95;;;1.65;;
8086;SDS011;4086;54.412;9.980;2022-08-27T13:25:19;4.25;;;1.73;;
8086;SDS011;4086;54.412;9.980;2022-08-27T13:27:52;3.58;;;1.60;;
8086;SDS011;4086;54.412;9.980;2022-08-27T13:30:20;3.70;;;1.90;;
8086;SDS011;4086;54.412;9.980;2022-08-27T13:32:47;4.65;;;1.60;;
8086;SDS011;4086;54.412;9.980;2022-08-27T13:35:14;3.83;;;1.98;;
8086;SDS011;4086;54.412;9.980;2022-08-27T13:37:43;2.92;;;1.80;;
8086;SDS011;4086;54.412;9.980;2022-08-27T13:40:22;3.03;;;1.90;;
8086;SDS011;4086;54.412;9.980;2022-08-27T13:42:52;2.40;;;1.70;;
8086;SDS011;4086;54.412;9.980;2022-08-27T13:45:20;2.60;;;1.63;;
8086;SDS011;4086;54.412;9.980;2022-08-27T13:47:47;3.40;;;1.45;;
8086;SDS011;4086;54.412;9.980;2022-08-27T13:50:16;3.15;;;1.77;;
8086;SDS011;4086;54.412;9.980;2022-08-27T13:52:45;3.15;;;1.45;;
8086;SDS011;4086;54.412;9.980;2022-08-27T13:55:27;2.80;;;1.70;;
8086;SDS011;4086;54.412;9.980;2022-08-27T13:57:55;4.15;;;1.65;;
8086;SDS011;4086;54.412;9.980;2022-08-27T14:00:23;3.67;;;1.80;;
8086;SDS011;4086;54.412;9.980;2022-08-27T14:02:52;5.30;;;1.88;;
8086;SDS011;4086;54.412;9.980;2022-08-27T14:05:26;2.38;;;1.60;;
8086;SDS011;4086;54.412;9.980;2022-08-27T14:07:54;3.33;;;1.83;;
8086;SDS011;4086;54.412;9.980;2022-08-27T14:13:06;2.80;;;1.70;;
8086;SDS011;4086;54.412;9.980;2022-08-27T14:15:35;3.15;;;1.70;;
8086;SDS011;4086;54.412;9.980;2022-08-27T14:18:03;3.17;;;1.88;;
8086;SDS011;4086;54.412;9.980;2022-08-27T14:20:31;4.78;;;1.98;;
8086;SDS011;4086;54.412;9.980;2022-08-27T14:22:57;2.95;;;1.75;;
8086;SDS011;4086;54.412;9.980;2022-08-27T14:25:24;2.33;;;1.80;;
8086;SDS011;4086;54.412;9.980;2022-08-27T14:27:53;3.03;;;1.63;;
8086;SDS011;4086;54.412;9.980;2022-08-27T14:30:21;2.83;;;1.80;;
8086;SDS011;4086;54.412;9.980;2022-08-27T14:32:49;6.18;;;1.80;;
8086;SDS011;4086;54.412;9.980;2022-08-27T14:35:15;4.05;;;1.55;;
8086;SDS011;4086;54.412;9.980;2022-08-27T14:37:43;3.90;;;1.60;;
8086;SDS011;4086;54.412;9.980;2022-08-27T14:40:11;2.42;;;1.73;;
8086;SDS011;4086;54.412;9.980;2022-08-27T14:42:38;4.45;;;1.90;;
8086;SDS011;4086;54.412;9.980;2022-08-27T14:45:07;3.67;;;1.73;;
8086;SDS011;4086;54.412;9.980;2022-08-27T14:47:35;3.88;;;1.65;;
8086;SDS011;4086;54.412;9.980;2022-08-27T14:50:03;4.20;;;1.80;;
8086;SDS011;4086;54.412;9.980;2022-08-27T14:52:30;3.25;;;1.80;;
8086;SDS011;4086;54.412;9.980;2022-08-27T14:54:56;2.55;;;1.70;;
8086;SDS011;4086;54.412;9.980;2022-08-27T14:57:23;3.72;;;1.88;;
8086;SDS011;4086;54.412;9.980;2022-08-27T14:59:49;1.98;;;1.58;;
8086;SDS011;4086;54.412;9.980;2022-08-27T15:02:17;2.55;;;1.73;;
8086;SDS011;4086;54.412;9.980;2022-08-27T15:04:45;3.05;;;1.98;;
8086;SDS011;4086;54.412;9.980;2022-08-27T15:07:11;3.03;;;1.75;;
8086;SDS011;4086;54.412;9.980;2022-08-27T15:09:38;5.20;;;1.95;;
8086;SDS011;4086;54.412;9.980;2022-08-27T15:12:04;2.60;;;1.55;;
8086;SDS011;4086;54.412;9.980;2022-08-27T15:14:32;5.03;;;1.95;;
8086;SDS011;4086;54.412;9.980;2022-08-27T15:17:01;4.25;;;1.60;;
8086;SDS011;4086;54.412;9.980;2022-08-27T15:19:32;3.60;;;1.67;;
8086;SDS011;4086;54.412;9.980;2022-08-27T15:21:59;6.32;;;2.08;;
8086;SDS011;4086;54.412;9.980;2022-08-27T15:24:31;4.35;;;2.08;;